createdAt,value
2022-08-30T00:00:33.932Z,20.47
2022-08-30T00:03:02.646Z,20.53
2022-08-30T00:05:31.808Z,20.50
2022-08-30T00:08:01.303Z,20.46
2022-08-30T00:10:29.640Z,20.44
2022-08-30T00:12:59.464Z,20.59
2022-08-30T00:15:29.185Z,20.58
2022-08-30T00:17:57.298Z,20.68
2022-08-30T00:20:29.049Z,20.48
2022-08-30T00:22:57.288Z,20.55
2022-08-30T00:25:26.988Z,20.55
2022-08-30T00:27:54.666Z,20.64
2022-08-30T00:30:22.893Z,20.75
2022-08-30T00:32:50.544Z,20.75
2022-08-30T00:35:20.433Z,20.74
2022-08-30T00:37:48.627Z,20.77
2022-08-30T00:40:17.525Z,20.69
2022-08-30T00:42:50.745Z,20.60
2022-08-30T00:45:25.321Z,20.62
2022-08-30T00:47:53.201Z,20.59
2022-08-30T00:50:24.323Z,20.55
2022-08-30T00:52:55.078Z,20.67
2022-08-30T00:55:23.648Z,20.58
2022-08-30T00:57:57.389Z,20.59
2022-08-30T01:00:26.952Z,20.61
2022-08-30T01:02:54.733Z,20.71
2022-08-30T01:05:23.892Z,20.66
2022-08-30T01:07:52.058Z,20.68
2022-08-30T01:10:20.055Z,20.69
2022-08-30T01:12:48.766Z,20.79
2022-08-30T01:15:17.934Z,20.62
2022-08-30T01:17:48.204Z,20.65
2022-08-30T01:20:21.437Z,20.58
2022-08-30T01:23:05.343Z,20.50
2022-08-30T01:25:36.257Z,20.54
2022-08-30T01:28:07.657Z,20.46
2022-08-30T01:30:39.003Z,20.50
2022-08-30T01:33:09.210Z,20.61
2022-08-30T01:35:47.066Z,20.70
2022-08-30T01:38:17.922Z,20.59
2022-08-30T01:40:45.855Z,20.75
2022-08-30T01:43:15.355Z,20.67
2022-08-30T01:45:43.300Z,20.50
2022-08-30T01:48:12.759Z,20.42
2022-08-30T01:50:41.667Z,20.38
2022-08-30T01:53:12.342Z,20.43
2022-08-30T01:55:42.760Z,20.45
2022-08-30T01:58:10.484Z,20.43
2022-08-30T02:00:38.586Z,20.36
2022-08-30T02:03:06.590Z,20.28
2022-08-30T02:05:34.841Z,20.22
2022-08-30T02:08:03.552Z,20.19
2022-08-30T02:10:31.832Z,20.26
2022-08-30T02:13:00.766Z,20.19
2022-08-30T02:15:28.449Z,20.36
2022-08-30T02:17:56.087Z,20.41
2022-08-30T02:20:24.112Z,20.49
2022-08-30T02:22:51.729Z,20.40
2022-08-30T02:25:20.770Z,20.38
2022-08-30T02:27:49.059Z,20.15
2022-08-30T02:30:18.083Z,20.04
2022-08-30T02:32:45.704Z,20.18
2022-08-30T02:35:13.272Z,20.17
2022-08-30T02:37:40.911Z,20.33
2022-08-30T02:40:10.186Z,20.29
2022-08-30T02:42:37.849Z,20.42
2022-08-30T02:45:06.271Z,20.43
2022-08-30T02:47:35.722Z,20.32
2022-08-30T02:50:03.889Z,20.24
2022-08-30T02:52:31.615Z,20.33
2022-08-30T02:54:59.672Z,20.35
2022-08-30T02:57:27.451Z,20.15
2022-08-30T02:59:55.034Z,20.13
2022-08-30T03:02:23.161Z,20.13
2022-08-30T03:04:52.197Z,19.91
2022-08-30T03:07:20.556Z,20.04
2022-08-30T03:09:48.404Z,19.95
2022-08-30T03:12:16.177Z,20.00
2022-08-30T03:14:43.749Z,20.07
2022-08-30T03:17:12.965Z,20.05
2022-08-30T03:19:44.692Z,19.97
2022-08-30T03:22:14.027Z,19.91
2022-08-30T03:24:41.882Z,19.77
2022-08-30T03:27:09.645Z,19.90
2022-08-30T03:29:37.209Z,19.92
2022-08-30T03:32:05.296Z,19.88
2022-08-30T03:34:32.998Z,19.90
2022-08-30T03:37:01.194Z,19.73
2022-08-30T03:39:30.125Z,19.86
2022-08-30T03:41:57.668Z,19.55
2022-08-30T03:44:26.993Z,19.56
2022-08-30T03:46:55.247Z,19.60
2022-08-30T03:49:23.998Z,19.52
2022-08-30T03:51:52.028Z,19.38
2022-08-30T03:54:19.632Z,19.32
2022-08-30T03:56:48.636Z,19.16
2022-08-30T03:59:16.684Z,19.25
2022-08-30T04:01:45.631Z,19.28
2022-08-30T04:04:16.313Z,19.39
2022-08-30T04:06:46.316Z,19.38
2022-08-30T04:09:13.889Z,19.38
2022-08-30T04:11:41.443Z,19.24
2022-08-30T04:14:10.370Z,19.22
2022-08-30T04:16:38.123Z,19.27
2022-08-30T04:19:05.814Z,19.24
2022-08-30T04:21:33.454Z,19.17
2022-08-30T04:24:08.628Z,19.20
2022-08-30T04:26:36.277Z,19.03
2022-08-30T04:29:03.938Z,19.04
2022-08-30T04:31:32.993Z,19.09
2022-08-30T04:34:00.707Z,19.13
2022-08-30T04:36:28.289Z,19.07
2022-08-30T04:38:55.989Z,18.98
2022-08-30T04:41:24.363Z,18.84
2022-08-30T04:43:52.029Z,18.87
2022-08-30T04:46:20.573Z,18.83
2022-08-30T04:48:50.249Z,18.71
2022-08-30T04:51:19.132Z,18.65
2022-08-30T04:53:47.047Z,18.89
2022-08-30T04:56:17.423Z,18.77
2022-08-30T04:58:45.684Z,18.63
2022-08-30T05:01:14.845Z,18.67
2022-08-30T05:03:46.669Z,18.76
2022-08-30T05:06:16.518Z,18.80
2022-08-30T05:08:45.911Z,18.83
2022-08-30T05:11:14.778Z,18.70
2022-08-30T05:13:42.520Z,18.72
2022-08-30T05:16:10.365Z,18.74
2022-08-30T05:18:38.297Z,18.61
2022-08-30T05:21:08.750Z,18.60
2022-08-30T05:23:38.346Z,18.71
2022-08-30T05:26:07.847Z,18.72
2022-08-30T05:28:36.187Z,18.76
2022-08-30T05:31:04.792Z,18.77
2022-08-30T05:33:41.750Z,18.90
2022-08-30T05:36:10.966Z,18.86
2022-08-30T05:38:40.625Z,18.76
2022-08-30T05:41:10.873Z,19.01
2022-08-30T05:43:39.273Z,19.13
2022-08-30T05:46:10.230Z,19.04
2022-08-30T05:48:38.527Z,19.10
2022-08-30T05:51:09.301Z,19.14
2022-08-30T05:53:36.992Z,19.28
2022-08-30T05:56:08.721Z,19.11
2022-08-30T05:58:36.717Z,19.15
2022-08-30T06:01:05.011Z,19.20
2022-08-30T06:03:33.374Z,19.36
2022-08-30T06:06:02.379Z,19.34
2022-08-30T06:08:30.245Z,19.39
2022-08-30T06:10:57.831Z,19.34
2022-08-30T06:13:26.719Z,19.45
2022-08-30T06:15:54.287Z,19.32
2022-08-30T06:18:28.272Z,19.39
2022-08-30T06:20:56.147Z,19.43
2022-08-30T06:23:24.143Z,19.50
2022-08-30T06:25:52.121Z,19.37
2022-08-30T06:28:19.700Z,19.32
2022-08-30T06:30:48.645Z,19.43
2022-08-30T06:33:16.215Z,19.61
2022-08-30T06:35:58.377Z,19.56
2022-08-30T06:38:27.600Z,19.44
2022-08-30T06:40:55.188Z,19.48
2022-08-30T06:43:22.755Z,19.53
2022-08-30T06:45:51.903Z,19.49
2022-08-30T06:48:19.470Z,19.63
2022-08-30T06:50:47.024Z,19.60
2022-08-30T06:53:15.338Z,19.79
2022-08-30T06:55:42.879Z,19.78
2022-08-30T06:58:10.399Z,19.94
2022-08-30T07:00:38.025Z,20.06
2022-08-30T07:03:07.239Z,20.02
2022-08-30T07:05:34.821Z,20.07
2022-08-30T07:08:02.616Z,20.00
2022-08-30T07:10:30.177Z,20.08
2022-08-30T07:12:57.965Z,20.01
2022-08-30T07:15:25.887Z,20.11
2022-08-30T07:18:10.980Z,20.18
2022-08-30T07:20:40.879Z,20.15
2022-08-30T07:23:08.830Z,20.40
2022-08-30T07:25:37.217Z,20.38
2022-08-30T07:28:05.450Z,20.50
2022-08-30T07:30:33.600Z,20.60
2022-08-30T07:33:01.256Z,20.69
2022-08-30T07:35:29.269Z,20.76
2022-08-30T07:37:58.606Z,20.58
2022-08-30T07:40:26.640Z,20.55
2022-08-30T07:42:54.806Z,20.67
2022-08-30T07:45:22.366Z,20.62
2022-08-30T07:47:49.935Z,20.62
2022-08-30T07:50:18.049Z,20.65
2022-08-30T07:52:45.618Z,20.90
2022-08-30T07:55:14.505Z,21.06
2022-08-30T07:57:42.042Z,21.08
2022-08-30T08:00:11.620Z,21.12
2022-08-30T08:02:40.676Z,21.13
2022-08-30T08:05:12.811Z,21.25
2022-08-30T08:07:44.028Z,21.40
2022-08-30T08:10:11.639Z,21.48
2022-08-30T08:12:40.892Z,21.29
2022-08-30T08:15:11.467Z,21.45
2022-08-30T08:17:39.108Z,21.58
2022-08-30T08:20:07.783Z,21.45
2022-08-30T08:22:39.751Z,21.44
2022-08-30T08:25:08.259Z,21.50
2022-08-30T08:27:35.884Z,21.49
2022-08-30T08:30:05.727Z,21.62
2022-08-30T08:32:33.259Z,21.70
2022-08-30T08:35:00.798Z,21.77
2022-08-30T08:37:28.354Z,21.65
2022-08-30T08:39:55.900Z,21.75
2022-08-30T08:42:31.815Z,21.91
2022-08-30T08:45:07.437Z,21.92
2022-08-30T08:47:42.415Z,21.92
2022-08-30T08:50:17.421Z,22.05
2022-08-30T08:53:10.789Z,22.18
2022-08-30T08:55:48.199Z,22.29
2022-08-30T08:58:23.368Z,22.31
2022-08-30T09:00:51.386Z,22.38
2022-08-30T09:03:22.164Z,22.32
2022-08-30T09:05:50.726Z,22.50
2022-08-30T09:08:23.357Z,22.53
2022-08-30T09:10:56.771Z,22.67
2022-08-30T09:13:25.726Z,22.68
2022-08-30T09:15:57.048Z,22.80
2022-08-30T09:18:46.918Z,22.83
2022-08-30T09:21:25.337Z,22.92
2022-08-30T09:23:59.350Z,23.05
2022-08-30T09:26:32.668Z,23.08
2022-08-30T09:29:00.911Z,23.21
2022-08-30T09:31:31.466Z,23.17
2022-08-30T09:34:05.136Z,23.22
2022-08-30T09:36:40.648Z,23.29
2022-08-30T09:39:16.818Z,23.30
2022-08-30T09:41:48.158Z,23.29
2022-08-30T09:44:19.329Z,23.33
2022-08-30T09:46:50.782Z,23.26
2022-08-30T09:49:37.730Z,23.37
2022-08-30T09:52:27.269Z,23.49
2022-08-30T09:55:14.581Z,23.57
2022-08-30T09:57:52.461Z,23.59
2022-08-30T10:00:22.560Z,23.68
2022-08-30T10:03:04.273Z,23.59
2022-08-30T10:05:43.468Z,23.67
2022-08-30T10:08:25.313Z,23.69
2022-08-30T10:10:57.890Z,23.74
2022-08-30T10:14:05.069Z,23.77
2022-08-30T10:16:43.419Z,23.81
2022-08-30T10:19:25.072Z,23.92
2022-08-30T10:22:00.206Z,23.90
2022-08-30T10:24:33.796Z,24.05
2022-08-30T10:27:08.553Z,24.22
2022-08-30T10:29:42.513Z,24.23
2022-08-30T10:32:19.989Z,24.35
2022-08-30T10:34:52.507Z,24.20
2022-08-30T10:37:26.345Z,24.30
2022-08-30T10:39:56.393Z,24.50
2022-08-30T10:42:27.684Z,24.54
2022-08-30T10:45:03.984Z,24.59
2022-08-30T10:47:38.051Z,24.72
2022-08-30T10:50:13.105Z,24.79
2022-08-30T10:52:45.921Z,24.91
2022-08-30T10:55:18.506Z,24.97
2022-08-30T10:57:46.302Z,24.98
2022-08-30T11:00:17.520Z,25.07
2022-08-30T11:03:16.657Z,25.15
2022-08-30T11:06:07.048Z,25.24
2022-08-30T11:08:55.316Z,25.22
2022-08-30T11:11:36.772Z,25.21
2022-08-30T11:14:10.952Z,25.36
2022-08-30T11:16:41.298Z,25.50
2022-08-30T11:19:18.869Z,25.56
2022-08-30T11:21:50.860Z,25.46
2022-08-30T11:24:22.209Z,25.36
2022-08-30T11:26:57.374Z,24.92
2022-08-30T11:29:40.164Z,24.18
2022-08-30T11:32:24.062Z,23.97
2022-08-30T11:35:00.688Z,24.03
2022-08-30T11:37:37.238Z,23.80
2022-08-30T11:40:13.247Z,24.13
2022-08-30T11:42:45.553Z,24.38
2022-08-30T11:45:45.671Z,24.42
2022-08-30T11:48:54.213Z,24.87
2022-08-30T11:52:23.615Z,25.26
2022-08-30T11:54:55.675Z,25.78
2022-08-30T11:57:32.164Z,25.69
2022-08-30T12:00:08.159Z,25.94
2022-08-30T12:02:49.947Z,25.92
2022-08-30T12:05:59.060Z,26.10
2022-08-30T12:08:47.501Z,25.97
2022-08-30T12:12:04.423Z,26.15
2022-08-30T12:14:41.033Z,26.02
2022-08-30T12:17:33.676Z,26.10
2022-08-30T12:20:01.619Z,26.16
2022-08-30T12:22:30.495Z,26.04
2022-08-30T12:24:58.193Z,26.10
2022-08-30T12:27:32.695Z,26.11
2022-08-30T12:30:05.973Z,26.13
2022-08-30T12:32:34.103Z,26.16
2022-08-30T12:35:03.990Z,26.33
2022-08-30T12:37:33.970Z,26.11
2022-08-30T12:40:06.103Z,26.18
2022-08-30T12:42:36.759Z,26.30
2022-08-30T12:45:10.286Z,26.34
2022-08-30T12:47:43.309Z,26.47
2022-08-30T12:50:15.338Z,26.57
2022-08-30T12:52:46.574Z,26.45
2022-08-30T12:55:19.163Z,26.52
2022-08-30T12:58:00.855Z,26.57
2022-08-30T13:00:32.312Z,26.36
2022-08-30T13:03:16.707Z,26.63
2022-08-30T13:05:52.828Z,26.76
2022-08-30T13:08:25.253Z,26.66
2022-08-30T13:11:01.517Z,26.79
2022-08-30T13:13:37.434Z,26.90
2022-08-30T13:16:24.744Z,26.97
2022-08-30T13:18:56.121Z,26.85
2022-08-30T13:21:27.087Z,27.03
2022-08-30T13:23:59.038Z,27.08
2022-08-30T13:26:28.152Z,27.07
2022-08-30T13:28:58.747Z,27.10
2022-08-30T13:31:30.134Z,27.02
2022-08-30T13:33:58.725Z,27.00
2022-08-30T13:36:31.488Z,27.05
2022-08-30T13:39:00.705Z,27.08
2022-08-30T13:41:30.147Z,27.26
2022-08-30T13:44:13.274Z,27.33
2022-08-30T13:46:53.286Z,27.20
2022-08-30T13:52:21.279Z,27.37
2022-08-30T13:54:50.242Z,27.25
2022-08-30T13:57:53.427Z,27.31
2022-08-30T14:00:10.053Z,27.22
2022-08-30T14:02:45.393Z,27.27
2022-08-30T14:05:37.602Z,27.32
2022-08-30T14:08:01.802Z,27.29
2022-08-30T14:10:31.950Z,27.26
2022-08-30T14:13:08.097Z,27.42
2022-08-30T14:15:38.825Z,27.33
2022-08-30T14:18:09.243Z,27.25
2022-08-30T14:20:38.679Z,27.29
2022-08-30T14:23:10.231Z,27.23
2022-08-30T14:25:40.301Z,27.14
2022-08-30T14:28:09.600Z,26.90
2022-08-30T14:30:38.794Z,27.24
2022-08-30T14:33:08.410Z,27.26
2022-08-30T14:35:36.627Z,27.32
2022-08-30T14:38:04.950Z,27.35
2022-08-30T14:40:33.753Z,27.07
2022-08-30T14:43:02.454Z,27.18
2022-08-30T14:45:30.032Z,27.31
2022-08-30T14:47:58.861Z,27.15
2022-08-30T14:50:28.705Z,27.19
2022-08-30T14:52:56.282Z,27.29
2022-08-30T14:55:24.060Z,27.44
2022-08-30T14:57:51.630Z,27.28
2022-08-30T15:00:19.866Z,27.37
2022-08-30T15:02:47.430Z,27.25
2022-08-30T15:05:15.043Z,27.49
2022-08-30T15:07:44.918Z,27.59
2022-08-30T15:10:14.747Z,27.51
2022-08-30T15:12:42.365Z,27.42
2022-08-30T15:15:20.494Z,27.24
2022-08-30T15:17:48.196Z,27.24
2022-08-30T15:20:18.667Z,27.12
2022-08-30T15:22:47.989Z,27.15
2022-08-30T15:25:16.147Z,26.96
2022-08-30T15:27:44.588Z,27.16
2022-08-30T15:30:13.000Z,26.84
2022-08-30T15:32:42.347Z,26.97
2022-08-30T15:35:10.829Z,26.97
2022-08-30T15:37:38.553Z,27.00
2022-08-30T15:40:09.072Z,26.76
2022-08-30T15:42:36.691Z,26.65
2022-08-30T15:45:04.733Z,26.32
2022-08-30T15:47:33.985Z,26.75
2022-08-30T15:50:04.970Z,26.90
2022-08-30T15:52:33.141Z,26.75
2022-08-30T15:55:00.857Z,26.68
2022-08-30T15:57:29.825Z,26.86
2022-08-30T15:59:57.484Z,26.88
2022-08-30T16:02:27.514Z,26.71
2022-08-30T16:04:55.599Z,26.75
2022-08-30T16:07:23.219Z,26.55
2022-08-30T16:09:51.302Z,26.52
2022-08-30T16:12:23.748Z,26.32
2022-08-30T16:14:52.917Z,26.32
2022-08-30T16:17:20.474Z,26.22
2022-08-30T16:19:48.026Z,26.23
2022-08-30T16:22:22.013Z,26.24
2022-08-30T16:24:50.149Z,26.18
2022-08-30T16:27:17.734Z,26.21
2022-08-30T16:29:45.302Z,26.26
2022-08-30T16:32:14.341Z,26.22
2022-08-30T16:34:41.944Z,26.04
2022-08-30T16:37:09.574Z,26.11
2022-08-30T16:39:37.224Z,26.14
2022-08-30T16:42:06.583Z,25.43
2022-08-30T16:44:34.771Z,25.67
2022-08-30T16:47:02.495Z,25.59
2022-08-30T16:49:31.738Z,25.74
2022-08-30T16:51:59.317Z,25.83
2022-08-30T16:54:27.002Z,25.74
2022-08-30T16:56:55.440Z,25.62
2022-08-30T16:59:23.642Z,25.52
2022-08-30T17:01:51.433Z,25.63
2022-08-30T17:04:20.244Z,25.68
2022-08-30T17:06:50.569Z,25.65
2022-08-30T17:09:19.588Z,25.55
2022-08-30T17:11:48.222Z,25.45
2022-08-30T17:14:21.512Z,25.42
2022-08-30T17:16:51.163Z,25.47
2022-08-30T17:19:18.733Z,25.53
2022-08-30T17:21:56.232Z,25.42
2022-08-30T17:24:24.617Z,25.34
2022-08-30T17:26:52.302Z,25.29
2022-08-30T17:29:20.643Z,25.08
2022-08-30T17:31:51.202Z,25.20
2022-08-30T17:34:21.005Z,25.11
2022-08-30T17:36:50.544Z,24.89
2022-08-30T17:39:19.728Z,24.87
2022-08-30T17:41:50.325Z,24.98
2022-08-30T17:44:19.459Z,25.05
2022-08-30T17:46:47.154Z,24.85
2022-08-30T17:49:15.231Z,24.88
2022-08-30T17:51:44.274Z,24.93
2022-08-30T17:54:13.022Z,24.85
2022-08-30T17:56:42.904Z,24.86
2022-08-30T17:59:11.669Z,24.97
2022-08-30T18:01:41.558Z,24.70
2022-08-30T18:04:10.743Z,24.61
2022-08-30T18:06:38.314Z,24.65
2022-08-30T18:09:09.211Z,24.57
2022-08-30T18:11:39.463Z,24.49
2022-08-30T18:14:10.831Z,24.42
2022-08-30T18:16:49.870Z,24.33
2022-08-30T18:19:22.439Z,24.36
2022-08-30T18:21:49.996Z,24.35
2022-08-30T18:24:17.908Z,24.13
2022-08-30T18:26:46.493Z,24.07
2022-08-30T18:29:26.168Z,24.34
2022-08-30T18:31:57.676Z,24.24
2022-08-30T18:34:25.216Z,24.21
2022-08-30T18:36:52.772Z,24.18
2022-08-30T18:39:21.809Z,24.23
2022-08-30T18:41:50.652Z,24.05
2022-08-30T18:44:29.577Z,24.13
2022-08-30T18:47:03.764Z,24.27
2022-08-30T18:49:34.680Z,24.13
2022-08-30T18:52:03.785Z,24.07
2022-08-30T18:54:31.671Z,24.06
2022-08-30T18:57:01.564Z,24.12
2022-08-30T18:59:35.687Z,23.90
2022-08-30T19:02:20.344Z,23.95
2022-08-30T19:04:56.702Z,23.91
2022-08-30T19:07:29.950Z,24.01
2022-08-30T19:10:06.007Z,23.79
2022-08-30T19:12:34.201Z,24.01
2022-08-30T19:15:11.017Z,23.91
2022-08-30T19:17:41.253Z,23.82
2022-08-30T19:20:10.109Z,23.86
2022-08-30T19:23:08.853Z,23.72
2022-08-30T19:25:35.547Z,23.67
2022-08-30T19:28:11.045Z,23.77
2022-08-30T19:30:40.475Z,23.78
2022-08-30T19:33:08.075Z,23.70
2022-08-30T19:35:50.847Z,23.61
2022-08-30T19:38:19.016Z,23.54
2022-08-30T19:40:52.371Z,23.52
2022-08-30T19:43:27.332Z,23.64
2022-08-30T19:46:00.896Z,23.43
2022-08-30T19:48:33.256Z,23.48
2022-08-30T19:51:07.890Z,23.49
2022-08-30T19:53:35.885Z,23.43
2022-08-30T19:56:03.944Z,23.44
2022-08-30T19:58:31.681Z,23.39
2022-08-30T20:01:10.935Z,23.35
2022-08-30T20:03:40.112Z,23.20
2022-08-30T20:06:09.023Z,23.36
2022-08-30T20:08:36.671Z,23.47
2022-08-30T20:11:04.811Z,23.47
2022-08-30T20:13:33.929Z,23.41
2022-08-30T20:16:03.731Z,23.38
2022-08-30T20:18:31.580Z,23.32
2022-08-30T20:20:59.138Z,23.32
2022-08-30T20:23:26.836Z,23.39
2022-08-30T20:25:55.582Z,23.39
2022-08-30T20:28:24.532Z,23.09
2022-08-30T20:30:52.707Z,23.03
2022-08-30T20:33:22.360Z,23.25
2022-08-30T20:35:51.421Z,23.13
2022-08-30T20:38:22.012Z,23.00
2022-08-30T20:40:54.879Z,23.09
2022-08-30T20:43:30.173Z,23.08
2022-08-30T20:46:18.696Z,23.08
2022-08-30T20:48:53.983Z,23.05
2022-08-30T20:51:27.588Z,23.10
2022-08-30T20:53:58.583Z,22.96
2022-08-30T20:56:27.626Z,23.08
2022-08-30T20:58:55.251Z,23.11
2022-08-30T21:01:23.425Z,23.07
2022-08-30T21:03:52.488Z,23.10
2022-08-30T21:06:21.675Z,22.89
2022-08-30T21:08:49.505Z,23.05
2022-08-30T21:11:17.073Z,22.96
2022-08-30T21:13:44.658Z,23.04
2022-08-30T21:16:12.723Z,22.99
2022-08-30T21:18:40.317Z,22.89
2022-08-30T21:21:13.764Z,22.89
2022-08-30T21:23:42.687Z,22.92
2022-08-30T21:26:11.852Z,22.84
2022-08-30T21:28:39.992Z,22.89
2022-08-30T21:31:09.327Z,22.95
2022-08-30T21:33:37.015Z,22.87
2022-08-30T21:36:23.006Z,22.92
2022-08-30T21:38:53.508Z,23.04
2022-08-30T21:41:22.088Z,22.96
2022-08-30T21:43:49.877Z,22.88
2022-08-30T21:46:17.831Z,22.90
2022-08-30T21:48:46.467Z,22.74
2022-08-30T21:51:14.047Z,22.90
2022-08-30T21:53:41.617Z,22.62
2022-08-30T21:56:15.476Z,22.70
2022-08-30T21:58:46.348Z,22.80
2022-08-30T22:01:17.397Z,22.57
2022-08-30T22:03:45.649Z,22.57
2022-08-30T22:06:14.969Z,22.51
2022-08-30T22:08:44.848Z,22.56
2022-08-30T22:11:19.000Z,22.72
2022-08-30T22:13:48.666Z,22.55
2022-08-30T22:16:17.253Z,22.59
2022-08-30T22:18:45.109Z,22.48
2022-08-30T22:21:15.177Z,22.45
2022-08-30T22:23:43.585Z,22.49
2022-08-30T22:26:12.014Z,22.46
2022-08-30T22:28:41.222Z,22.30
2022-08-30T22:31:11.958Z,22.48
2022-08-30T22:33:40.031Z,22.21
2022-08-30T22:36:08.434Z,22.16
2022-08-30T22:38:36.378Z,22.22
2022-08-30T22:41:04.128Z,22.18
2022-08-30T22:43:31.646Z,22.21
2022-08-30T22:46:00.923Z,22.23
2022-08-30T22:48:28.484Z,22.09
2022-08-30T22:50:56.047Z,22.07
2022-08-30T22:53:23.587Z,22.12
2022-08-30T22:55:51.168Z,22.14
2022-08-30T22:58:19.287Z,21.96
2022-08-30T23:00:49.725Z,22.09
2022-08-30T23:03:24.474Z,21.97
2022-08-30T23:05:52.001Z,21.98
2022-08-30T23:08:19.591Z,22.03
2022-08-30T23:10:47.138Z,22.11
2022-08-30T23:13:14.682Z,21.99
2022-08-30T23:15:42.455Z,21.90
2022-08-30T23:18:10.040Z,21.74
2022-08-30T23:20:38.920Z,21.94
2022-08-30T23:23:05.385Z,21.78
2022-08-30T23:25:52.281Z,21.65
2022-08-30T23:28:39.521Z,21.73
2022-08-30T23:31:29.997Z,21.78
2022-08-30T23:34:15.566Z,21.81
2022-08-30T23:37:02.806Z,21.83
2022-08-30T23:39:48.047Z,21.79
2022-08-30T23:42:33.361Z,21.64
2022-08-30T23:45:18.763Z,21.77
2022-08-30T23:48:04.070Z,21.69
2022-08-30T23:50:49.420Z,21.51
2022-08-30T23:53:35.981Z,21.55
2022-08-30T23:56:21.251Z,21.41
2022-08-30T23:59:06.102Z,21.44
